Time;durP1;ratioP1;P1;durP2;ratioP2;P2;SDS_P1;SDS_P2;PMS_P1;PMS_P2;Temp;Humidity;BMP_temperature;BMP_pressure;BME280_temperature;BME280_humidity;BME280_pressure;Samples;Min_cycle;Max_cycle;Signal;HPM_P1;HPM_P2
2022/03/04 00:01:29;;;;;;;27.40;15.40;;;2.10;88.00;;;;;;2612668;47;20454;-79
2022/03/04 00:03:56;;;;;;;18.43;13.07;;;;;;;;;;2613895;54;20467;-79
2022/03/04 00:06:22;;;;;;;27.90;17.87;;;1.90;85.40;;;;;;2614648;39;20924;-81
2022/03/04 00:08:50;;;;;;;23.13;15.30;;;;;;;;;;2613677;47;20419;-79
2022/03/04 00:11:17;;;;;;;28.70;16.50;;;1.80;95.30;;;;;;2612965;47;20954;-77
2022/03/04 00:13:43;;;;;;;30.13;24.20;;;;;;;;;;2615632;54;20408;-78
2022/03/04 00:16:10;;;;;;;30.07;18.53;;;;;;;;;;2614490;47;20418;-79
2022/03/04 00:18:36;;;;;;;29.30;16.40;;;1.50;96.50;;;;;;2614843;39;20478;-78
2022/03/04 00:21:02;;;;;;;28.93;17.30;;;;;;;;;;2615087;47;20516;-78
2022/03/04 00:23:28;;;;;;;28.40;19.43;;;1.20;99.90;;;;;;2615648;47;20185;-78
2022/03/04 00:25:54;;;;;;;26.60;19.70;;;1.20;99.90;;;;;;2615624;54;21461;-79
2022/03/04 00:28:20;;;;;;;25.47;16.70;;;;;;;;;;2615734;47;20449;-78
2022/03/04 00:30:46;;;;;;;29.43;17.53;;;1.20;99.90;;;;;;2613032;54;20506;-77
2022/03/04 00:33:12;;;;;;;36.33;19.83;;;;;;;;;;2617573;39;20771;-80
2022/03/04 00:35:38;;;;;;;25.80;15.20;;;;;;;;;;2613172;47;20415;-79
2022/03/04 00:38:05;;;;;;;28.37;15.60;;;;;;;;;;2614275;47;20534;-79
2022/03/04 00:40:30;;;;;;;35.07;20.13;;;1.10;99.90;;;;;;2615108;47;20407;-79
2022/03/04 00:42:56;;;;;;;29.40;19.80;;;1.10;99.90;;;;;;2620670;47;20437;-79
2022/03/04 00:45:23;;;;;;;33.57;20.47;;;;;;;;;;2619420;54;20159;-78
2022/03/04 00:47:48;;;;;;;28.03;17.97;;;1.10;99.90;;;;;;2619214;54;20403;-80
2022/03/04 00:50:14;;;;;;;28.70;16.40;;;1.00;99.90;;;;;;2616019;47;20428;-79
2022/03/04 00:52:40;;;;;;;27.00;17.30;;;0.90;99.90;;;;;;2614589;47;20399;-80
2022/03/04 00:55:06;;;;;;;32.13;19.70;;;0.90;99.90;;;;;;2616074;39;20685;-78
2022/03/04 00:57:32;;;;;;;36.23;19.70;;;0.90;99.90;;;;;;2614910;47;20181;-78
2022/03/04 00:59:58;;;;;;;27.77;17.37;;;0.80;99.90;;;;;;2615167;47;20426;-79
2022/03/04 01:02:24;;;;;;;24.70;17.00;;;0.80;99.90;;;;;;2615763;54;20143;-77
2022/03/04 01:04:50;;;;;;;30.60;17.00;;;;;;;;;;2615318;47;20418;-79
2022/03/04 01:07:16;;;;;;;34.67;20.00;;;0.70;99.90;;;;;;2614580;54;20943;-79
2022/03/04 01:09:42;;;;;;;42.03;20.03;;;;;;;;;;2614797;54;20501;-78
2022/03/04 01:12:08;;;;;;;31.53;20.60;;;0.50;99.90;;;;;;2615277;39;20840;-78
2022/03/04 01:14:35;;;;;;;34.30;16.00;;;;;;;;;;2614882;47;20402;-78
2022/03/04 01:17:00;;;;;;;32.67;18.07;;;0.50;99.90;;;;;;2615441;54;20405;-78
2022/03/04 01:19:26;;;;;;;36.70;20.70;;;0.50;99.90;;;;;;2616441;47;20407;-78
2022/03/04 01:21:52;;;;;;;32.70;21.13;;;0.50;99.90;;;;;;2615477;39;20599;-78
2022/03/04 01:24:18;;;;;;;30.67;21.07;;;0.50;99.90;;;;;;2616172;54;20407;-78
2022/03/04 01:26:44;;;;;;;33.00;21.00;;;0.60;99.90;;;;;;2616259;54;20658;-78
2022/03/04 01:29:10;;;;;;;31.67;19.67;;;0.60;99.90;;;;;;2616653;47;20178;-78
2022/03/04 01:31:35;;;;;;;36.20;22.10;;;0.40;99.90;;;;;;2616109;47;20170;-78
2022/03/04 01:34:01;;;;;;;32.83;20.83;;;0.30;99.90;;;;;;2616672;47;20190;-78
2022/03/04 01:36:32;;;;;;;34.13;21.20;;;0.50;99.90;;;;;;2616298;47;20206;-78
2022/03/04 01:38:58;;;;;;;33.97;19.70;;;0.50;99.90;;;;;;2615778;46;20415;-80
2022/03/04 01:41:24;;;;;;;44.53;20.37;;;0.50;99.90;;;;;;2616354;46;20395;-79
2022/03/04 01:43:50;;;;;;;34.30;21.13;;;0.50;99.90;;;;;;2616674;54;20412;-79
2022/03/04 01:46:17;;;;;;;36.33;17.53;;;0.30;99.90;;;;;;2616143;54;20161;-79
2022/03/04 01:48:45;;;;;;;41.33;22.13;;;0.20;99.90;;;;;;2615885;47;20151;-80
2022/03/04 01:51:12;;;;;;;31.70;18.70;;;0.20;99.90;;;;;;2620214;47;20382;-79
2022/03/04 01:53:42;;;;;;;35.63;20.07;;;0.30;99.90;;;;;;2621054;47;20384;-79
2022/03/04 01:56:08;;;;;;;35.70;21.80;;;0.20;99.90;;;;;;2621087;47;20407;-77
2022/03/04 01:58:34;;;;;;;31.23;18.50;;;0.20;99.90;;;;;;2621217;54;20379;-80
2022/03/04 02:01:00;;;;;;;41.60;22.23;;;0.20;99.90;;;;;;2620136;54;20464;-78
2022/03/04 02:03:28;;;;;;;37.07;20.10;;;0.30;99.90;;;;;;2619641;47;20387;-78
2022/03/04 02:05:54;;;;;;;34.03;20.17;;;0.20;99.90;;;;;;2619371;47;20406;-78
2022/03/04 02:08:20;;;;;;;34.53;21.00;;;0.10;99.90;;;;;;2615125;47;20414;-78
2022/03/04 02:10:46;;;;;;;32.40;19.67;;;0.10;99.90;;;;;;2615310;47;20458;-78
2022/03/04 02:13:11;;;;;;;36.70;18.57;;;0.20;99.90;;;;;;2614671;47;20403;-78
2022/03/04 02:15:37;;;;;;;34.70;18.60;;;0.30;99.90;;;;;;2615465;39;20643;-78
2022/03/04 02:18:14;;;;;;;32.30;19.37;;;0.20;99.90;;;;;;2614861;54;20383;-78
2022/03/04 02:20:48;;;;;;;30.43;17.43;;;0.10;99.90;;;;;;2616135;54;20666;-79
2022/03/04 02:23:14;;;;;;;35.17;21.60;;;0.00;99.90;;;;;;2614908;47;20403;-77
2022/03/04 02:25:51;;;;;;;46.13;23.50;;;0.00;99.90;;;;;;2615567;54;20410;-78
2022/03/04 02:28:19;;;;;;;35.13;18.57;;;-0.10;99.90;;;;;;2615216;47;20370;-79
2022/03/04 02:30:45;;;;;;;33.33;20.90;;;-0.10;99.90;;;;;;2615236;46;20446;-77
2022/03/04 02:33:11;;;;;;;41.50;23.80;;;-0.20;99.90;;;;;;2614676;47;20375;-78
2022/03/04 02:35:38;;;;;;;32.33;20.40;;;;;;;;;;2614789;46;20412;-78
2022/03/04 02:38:04;;;;;;;30.60;21.73;;;0.00;99.90;;;;;;2614590;47;20404;-78
2022/03/04 02:40:30;;;;;;;37.30;21.80;;;0.00;99.90;;;;;;2614982;46;20510;-77
2022/03/04 02:42:56;;;;;;;30.20;20.53;;;0.00;99.90;;;;;;2615048;47;20414;-78
2022/03/04 02:45:22;;;;;;;35.50;19.97;;;-0.10;99.90;;;;;;2615557;47;20443;-78
2022/03/04 02:47:48;;;;;;;34.63;21.13;;;-0.20;99.90;;;;;;2614567;54;20490;-79
2022/03/04 02:50:14;;;;;;;29.47;19.10;;;-0.20;99.90;;;;;;2614033;54;20418;-80
2022/03/04 02:52:41;;;;;;;40.70;21.93;;;-0.30;99.90;;;;;;2614950;54;20408;-80
2022/03/04 02:55:11;;;;;;;32.57;19.87;;;-0.30;99.90;;;;;;2615045;54;20379;-78
2022/03/04 02:57:42;;;;;;;32.63;18.73;;;-0.40;99.90;;;;;;2615009;47;20490;-78
2022/03/04 03:00:09;;;;;;;39.10;21.67;;;-0.30;99.90;;;;;;2615108;47;20536;-80
2022/03/04 03:02:36;;;;;;;33.60;19.57;;;-0.30;99.90;;;;;;2615406;46;20411;-78
2022/03/04 03:05:02;;;;;;;37.60;21.93;;;-0.30;99.90;;;;;;2615255;47;20491;-78
2022/03/04 03:07:29;;;;;;;36.33;20.63;;;-0.40;99.90;;;;;;2617834;47;20158;-79
2022/03/04 03:09:55;;;;;;;37.23;21.03;;;-0.40;99.90;;;;;;2619793;39;20749;-79
2022/03/04 03:12:22;;;;;;;38.93;20.00;;;-0.30;99.90;;;;;;2619056;54;20954;-81
2022/03/04 03:14:49;;;;;;;37.17;21.20;;;-0.30;99.90;;;;;;2619085;47;20376;-77
2022/03/04 03:17:17;;;;;;;34.60;23.37;;;-0.40;99.90;;;;;;2619376;54;20362;-77
2022/03/04 03:19:42;;;;;;;31.63;21.57;;;-0.40;99.90;;;;;;2619190;54;20359;-79
2022/03/04 03:22:33;;;;;;;37.03;22.37;;;-0.50;99.90;;;;;;2618542;47;20387;-77
2022/03/04 03:24:59;;;;;;;32.00;20.47;;;-0.40;99.90;;;;;;2613935;47;20155;-77
2022/03/04 03:27:24;;;;;;;39.50;21.90;;;-0.30;99.90;;;;;;2613661;47;20418;-79
2022/03/04 03:29:50;;;;;;;27.37;18.47;;;-0.30;99.90;;;;;;2614021;47;20430;-77
2022/03/04 03:32:16;;;;;;;33.77;20.90;;;-0.50;99.90;;;;;;2614110;54;20395;-77
2022/03/04 03:34:42;;;;;;;35.47;19.50;;;-0.30;99.90;;;;;;2613985;54;20916;-78
2022/03/04 03:37:09;;;;;;;32.83;19.30;;;-0.30;99.90;;;;;;2613594;47;20389;-80
2022/03/04 03:39:36;;;;;;;32.90;19.00;;;-0.20;99.90;;;;;;2614046;54;20920;-79
2022/03/04 03:42:03;;;;;;;33.03;19.17;;;0.70;99.90;;;;;;2614580;39;20836;-79
2022/03/04 03:44:29;;;;;;;33.80;20.67;;;-0.10;99.90;;;;;;2614443;54;20408;-79
2022/03/04 03:46:56;;;;;;;41.17;21.73;;;;;;;;;;2613757;47;20407;-78
2022/03/04 03:49:22;;;;;;;32.83;19.23;;;;;;;;;;2613911;31;20903;-78
2022/03/04 03:51:49;;;;;;;31.17;20.20;;;;;;;;;;2613563;47;20415;-78
2022/03/04 03:54:15;;;;;;;35.43;19.70;;;0.00;99.90;;;;;;2613899;39;20859;-77
2022/03/04 03:56:40;;;;;;;33.80;21.63;;;0.00;99.90;;;;;;2613411;47;20420;-79
2022/03/04 03:59:06;;;;;;;37.63;21.47;;;0.00;99.90;;;;;;2613494;54;20511;-78
2022/03/04 04:01:32;;;;;;;42.63;23.13;;;0.70;99.90;;;;;;2614460;54;20151;-79
2022/03/04 04:03:59;;;;;;;44.97;26.00;;;0.10;99.90;;;;;;2614960;47;20162;-80
2022/03/04 04:06:25;;;;;;;39.87;22.90;;;0.00;99.90;;;;;;2614241;47;20396;-79
2022/03/04 04:08:51;;;;;;;38.57;23.20;;;0.10;99.90;;;;;;2614380;47;20938;-78
2022/03/04 04:11:17;;;;;;;40.90;26.50;;;0.20;99.90;;;;;;2614718;46;20519;-79
2022/03/04 04:13:42;;;;;;;47.47;26.77;;;0.10;99.90;;;;;;2615029;47;20281;-78
2022/03/04 04:16:08;;;;;;;37.77;24.93;;;0.20;99.90;;;;;;2615117;54;20466;-80
2022/03/04 04:18:35;;;;;;;40.60;29.37;;;0.20;99.90;;;;;;2614991;47;20205;-81
2022/03/04 04:21:04;;;;;;;52.53;31.63;;;0.10;99.90;;;;;;2614858;47;20951;-78
2022/03/04 04:23:30;;;;;;;47.33;25.47;;;0.20;99.90;;;;;;2615549;47;20444;-80
2022/03/04 04:25:56;;;;;;;47.67;30.17;;;0.20;99.90;;;;;;2615508;47;20419;-78
2022/03/04 04:28:25;;;;;;;35.60;27.60;;;0.30;99.90;;;;;;2615800;54;20945;-78
2022/03/04 04:30:51;;;;;;;40.67;26.67;;;0.20;99.90;;;;;;2616196;54;20147;-78
2022/03/04 04:33:17;;;;;;;39.20;27.07;;;0.30;99.90;;;;;;2616845;54;20378;-79
2022/03/04 04:35:43;;;;;;;45.87;26.47;;;0.20;99.90;;;;;;2615910;47;20386;-78
2022/03/04 04:38:09;;;;;;;41.47;22.57;;;;;;;;;;2616019;47;20408;-79
2022/03/04 04:40:35;;;;;;;41.47;27.70;;;0.20;99.90;;;;;;2616872;54;20151;-79
2022/03/04 04:43:01;;;;;;;37.27;23.43;;;0.20;99.90;;;;;;2617315;54;20474;-78
2022/03/04 04:45:27;;;;;;;37.47;24.13;;;0.20;99.90;;;;;;2615916;54;20674;-78
2022/03/04 04:47:52;;;;;;;37.30;23.00;;;0.10;99.90;;;;;;2615574;47;20383;-78
2022/03/04 04:50:18;;;;;;;38.67;23.70;;;0.20;99.90;;;;;;2616068;54;20147;-80
2022/03/04 04:52:44;;;;;;;42.73;24.33;;;0.70;99.90;;;;;;2615969;47;20434;-80
2022/03/04 04:55:10;;;;;;;40.53;25.50;;;0.10;99.90;;;;;;2615837;54;20155;-79
2022/03/04 04:57:36;;;;;;;41.47;22.47;;;0.00;99.90;;;;;;2616162;39;20578;-79
2022/03/04 05:00:04;;;;;;;42.30;24.50;;;0.10;99.90;;;;;;2616359;54;20965;-78
2022/03/04 05:02:30;;;;;;;39.90;21.83;;;;;;;;;;2616321;47;20366;-79
2022/03/04 05:04:56;;;;;;;37.20;22.57;;;;;;;;;;2616017;47;20419;-80
2022/03/04 05:07:22;;;;;;;36.70;22.43;;;0.00;99.90;;;;;;2616170;54;20398;-78
2022/03/04 05:09:48;;;;;;;37.67;22.27;;;;;;;;;;2616198;47;20385;-79
2022/03/04 05:12:14;;;;;;;33.97;21.60;;;-0.20;99.90;;;;;;2616170;54;20419;-78
2022/03/04 05:14:41;;;;;;;31.47;20.83;;;;;;;;;;2615814;46;20458;-78
2022/03/04 05:17:06;;;;;;;43.73;22.67;;;-0.30;99.90;;;;;;2615659;47;20181;-78
2022/03/04 05:19:33;;;;;;;33.57;19.70;;;;;;;;;;2614990;47;21561;-80
2022/03/04 05:21:59;;;;;;;39.63;22.77;;;;;;;;;;2616149;47;20159;-78
2022/03/04 05:24:25;;;;;;;35.90;21.33;;;;;;;;;;2615419;47;20363;-80
2022/03/04 05:26:51;;;;;;;36.40;21.20;;;-0.50;99.90;;;;;;2615613;46;20431;-81
2022/03/04 05:29:17;;;;;;;35.53;21.33;;;-0.70;99.90;;;;;;2615362;47;20371;-78
2022/03/04 05:31:43;;;;;;;43.07;22.40;;;;;;;;;;2614713;54;20375;-81
2022/03/04 05:34:10;;;;;;;33.90;17.93;;;;;;;;;;2614720;54;20175;-79
2022/03/04 05:36:39;;;;;;;29.43;19.37;;;-0.80;99.90;;;;;;2615398;39;20747;-80
2022/03/04 05:39:06;;;;;;;34.47;20.83;;;;;;;;;;2615513;46;20399;-78
2022/03/04 05:41:31;;;;;;;43.73;20.93;;;-0.60;99.90;;;;;;2615234;54;20438;-79
2022/03/04 05:43:58;;;;;;;36.03;20.87;;;;;;;;;;2615540;39;20924;-78
2022/03/04 05:46:24;;;;;;;41.27;22.27;;;-0.90;99.90;;;;;;2614881;47;20386;-81
2022/03/04 05:48:50;;;;;;;33.67;18.50;;;;;;;;;;2616053;39;20735;-80
2022/03/04 05:51:17;;;;;;;31.90;18.63;;;;;;;;;;2615623;39;20830;-80
2022/03/04 05:53:43;;;;;;;35.40;21.73;;;-1.10;99.90;;;;;;2615601;47;20455;-78
2022/03/04 05:56:09;;;;;;;32.70;18.50;;;-1.20;99.90;;;;;;2615364;46;20391;-78
2022/03/04 05:58:37;;;;;;;35.97;16.67;;;-1.30;99.90;;;;;;2615178;47;21412;-80
2022/03/04 06:01:06;;;;;;;40.70;20.83;;;-1.20;99.90;;;;;;2615679;54;20403;-78
2022/03/04 06:03:33;;;;;;;29.03;20.00;;;-1.30;99.90;;;;;;2615388;51;20410;-79
2022/03/04 06:05:58;;;;;;;37.93;22.83;;;-1.30;99.90;;;;;;2615437;54;20375;-80
2022/03/04 06:08:25;;;;;;;33.50;19.10;;;;;;;;;;2615755;54;20388;-80
2022/03/04 06:10:51;;;;;;;46.97;23.47;;;;;;;;;;2616356;39;20770;-80
2022/03/04 06:13:17;;;;;;;35.43;22.20;;;;;;;;;;2615278;46;20382;-79
2022/03/04 06:15:43;;;;;;;36.07;19.70;;;;;;;;;;2615189;54;21521;-83
2022/03/04 06:18:09;;;;;;;41.97;26.10;;;;;;;;;;2615170;54;20439;-81
2022/03/04 06:20:36;;;;;;;47.90;23.70;;;;;;;;;;2615213;54;20420;-81
2022/03/04 06:23:02;;;;;;;38.47;23.50;;;;;;;;;;2615184;47;20454;-82
2022/03/04 06:25:29;;;;;;;24.67;19.10;;;;;;;;;;2615333;46;20386;-81
2022/03/04 06:27:58;;;;;;;34.10;21.67;;;-1.10;99.90;;;;;;2615264;47;20523;-79
2022/03/04 06:30:25;;;;;;;34.73;19.50;;;;;;;;;;2614506;46;20412;-84
2022/03/04 06:33:29;;;;;;;45.80;20.27;;;;;;;;;;2614717;46;20398;-79
2022/03/04 06:35:38;;;;;;;25.47;15.90;;;;;;;;;;2615589;47;20407;-81
2022/03/04 06:38:05;;;;;;;32.87;15.27;;;;;;;;;;2614462;47;20462;-80
2022/03/04 06:40:31;;;;;;;29.90;18.87;;;;;;;;;;2615407;46;20534;-79
2022/03/04 06:42:57;;;;;;;39.77;22.10;;;-0.60;99.90;;;;;;2615338;47;20527;-80
2022/03/04 06:45:23;;;;;;;43.20;21.20;;;;;;;;;;2615311;46;20427;-80
2022/03/04 06:47:50;;;;;;;46.87;20.57;;;;;;;;;;2615694;54;20383;-79
2022/03/04 06:50:16;;;;;;;42.67;19.87;;;;;;;;;;2614959;47;20382;-78
2022/03/04 06:52:43;;;;;;;38.30;20.67;;;;;;;;;;2614615;39;20848;-80
2022/03/04 06:55:10;;;;;;;40.93;21.70;;;-0.30;99.90;;;;;;2615009;54;20372;-80
2022/03/04 06:57:37;;;;;;;38.53;20.30;;;-0.30;99.90;;;;;;2613514;47;20419;-81
2022/03/04 07:00:09;;;;;;;36.70;16.70;;;-0.20;99.90;;;;;;2614914;46;20433;-80
2022/03/04 07:02:36;;;;;;;40.37;22.50;;;;;;;;;;2614885;47;20367;-80
2022/03/04 07:05:07;;;;;;;45.60;23.77;;;-0.10;99.90;;;;;;2614472;47;20377;-80
2022/03/04 07:07:33;;;;;;;39.77;20.70;;;;;;;;;;2651022;36;20482;-80
2022/03/04 07:09:59;;;;;;;34.10;18.60;;;;;;;;;;2615015;47;20381;-80
2022/03/04 07:12:25;;;;;;;37.80;21.90;;;;;;;;;;2614710;54;20387;-81
2022/03/04 07:14:52;;;;;;;40.70;22.97;;;0.60;99.90;;;;;;2614033;54;20483;-78
2022/03/04 07:17:20;;;;;;;46.57;25.90;;;1.10;99.90;;;;;;2614756;47;20378;-81
2022/03/04 07:19:46;;;;;;;46.20;26.00;;;1.40;99.90;;;;;;2614634;39;20693;-79
2022/03/04 07:22:11;;;;;;;38.00;24.17;;;2.00;99.90;;;;;;2614482;47;21449;-80
2022/03/04 07:24:37;;;;;;;41.83;26.80;;;2.10;99.90;;;;;;2613928;54;20423;-79
2022/03/04 07:27:05;;;;;;;44.07;25.10;;;2.60;99.90;;;;;;2614711;47;20640;-79
2022/03/04 07:29:31;;;;;;;41.70;24.40;;;;;;;;;;2614789;54;20407;-79
2022/03/04 07:31:57;;;;;;;42.07;26.00;;;3.30;99.90;;;;;;2617686;47;20166;-79
2022/03/04 07:34:23;;;;;;;37.60;22.20;;;3.70;99.90;;;;;;2616442;54;20423;-80
2022/03/04 07:37:15;;;;;;;33.70;23.40;;;3.70;99.90;;;;;;2617903;54;20394;-80
2022/03/04 07:39:41;;;;;;;38.40;24.30;;;4.10;99.90;;;;;;2609591;47;20506;-79
2022/03/04 07:42:07;;;;;;;33.03;23.53;;;4.40;96.80;;;;;;2612604;47;20443;-78
2022/03/04 07:44:37;;;;;;;39.00;24.20;;;5.00;77.00;;;;;;2613366;54;20419;-79
2022/03/04 07:47:05;;;;;;;34.80;20.27;;;5.00;75.20;;;;;;2613100;47;20420;-79
2022/03/04 07:49:33;;;;;;;38.93;20.80;;;5.40;52.80;;;;;;2614261;54;20962;-77
2022/03/04 07:51:59;;;;;;;35.83;21.30;;;5.40;51.60;;;;;;2615301;54;20549;-79
2022/03/04 07:54:25;;;;;;;30.17;20.57;;;5.50;48.70;;;;;;2612577;54;20419;-81
2022/03/04 07:56:52;;;;;;;35.97;21.53;;;5.70;45.60;;;;;;2609541;54;20419;-77
2022/03/04 07:59:19;;;;;;;29.80;19.47;;;;;;;;;;2608333;54;20455;-79
2022/03/04 08:01:45;;;;;;;41.50;19.83;;;5.90;45.50;;;;;;2606744;54;20403;-79
2022/03/04 08:04:11;;;;;;;30.53;20.07;;;6.20;34.20;;;;;;2607533;54;20467;-78
2022/03/04 08:06:39;;;;;;;30.00;21.70;;;6.70;29.00;;;;;;2608908;39;20876;-79
2022/03/04 08:09:04;;;;;;;29.30;19.50;;;7.20;26.90;;;;;;2606700;54;20407;-79
2022/03/04 08:11:30;;;;;;;28.87;18.97;;;7.00;25.70;;;;;;2608315;54;20486;-78
2022/03/04 08:13:56;;;;;;;26.63;19.30;;;7.20;19.20;;;;;;2608740;54;20154;-79
2022/03/04 08:16:24;;;;;;;29.53;20.70;;;7.50;19.20;;;;;;2608229;54;20962;-80
2022/03/04 08:18:50;;;;;;;33.40;22.07;;;7.60;24.50;;;;;;2607826;47;20467;-79
2022/03/04 08:21:16;;;;;;;29.30;22.63;;;7.60;16.80;;;;;;2608797;54;21190;-78
2022/03/04 08:23:43;;;;;;;29.80;19.73;;;;;;;;;;2607447;47;21168;-79
2022/03/04 08:26:09;;;;;;;34.43;18.83;;;8.00;12.20;;;;;;2607518;47;20432;-79
2022/03/04 08:28:36;;;;;;;25.13;17.90;;;;;;;;;;2609430;54;20403;-79
2022/03/04 08:31:10;;;;;;;42.13;19.20;;;;;;;;;;2607482;47;20444;-78
2022/03/04 08:33:37;;;;;;;28.33;19.10;;;8.40;17.20;;;;;;2609149;54;20418;-77
2022/03/04 08:36:05;;;;;;;26.93;19.63;;;8.50;8.60;;;;;;2610244;47;20443;-78
2022/03/04 08:38:31;;;;;;;25.00;18.07;;;;;;;;;;2609906;47;20468;-78
2022/03/04 08:40:57;;;;;;;25.97;18.90;;;;;;;;;;2610340;39;21379;-78
2022/03/04 08:43:23;;;;;;;30.87;18.30;;;;;;;;;;2612413;39;20881;-78
2022/03/04 08:45:50;;;;;;;25.03;17.80;;;;;;;;;;2612617;39;20461;-76
2022/03/04 08:48:16;;;;;;;25.00;17.43;;;;;;;;;;2612519;39;20933;-77
2022/03/04 08:50:42;;;;;;;27.90;20.40;;;9.00;4.00;;;;;;2613021;46;20432;-77
2022/03/04 08:53:07;;;;;;;29.67;18.90;;;9.20;4.10;;;;;;2611846;54;21153;-77
2022/03/04 08:55:34;;;;;;;27.17;18.97;;;;;;;;;;2611513;54;20146;-78
2022/03/04 08:58:00;;;;;;;29.60;19.03;;;;;;;;;;2642857;36;20473;-77
2022/03/04 09:00:30;;;;;;;31.03;20.37;;;9.30;8.30;;;;;;2611083;47;20505;-77
2022/03/04 09:03:00;;;;;;;29.67;18.10;;;;;;;;;;2612292;54;20413;-76
2022/03/04 09:05:26;;;;;;;25.07;18.10;;;10.00;2.00;;;;;;2611977;47;20418;-77
2022/03/04 09:07:54;;;;;;;29.47;18.40;;;10.30;1.00;;;;;;2616645;54;20406;-78
2022/03/04 09:10:20;;;;;;;23.67;19.53;;;10.30;1.00;;;;;;2615763;54;20155;-77
2022/03/04 09:12:46;;;;;;;26.17;18.90;;;;;;;;;;2615131;54;20385;-77
2022/03/04 09:15:12;;;;;;;34.70;20.30;;;;;;;;;;2616177;46;20175;-77
2022/03/04 09:17:40;;;;;;;25.80;19.23;;;;;;;;;;2615164;47;20404;-77
2022/03/04 09:20:07;;;;;;;24.73;17.33;;;10.60;1.00;;;;;;2615915;39;21071;-77
2022/03/04 09:22:33;;;;;;;22.57;18.03;;;;;;;;;;2611785;39;20826;-77
2022/03/04 09:24:59;;;;;;;28.63;20.37;;;;;;;;;;2611633;54;20454;-77
2022/03/04 09:27:26;;;;;;;127.90;114.03;;;;;;;;;;2612074;39;20829;-77
2022/03/04 09:29:52;;;;;;;30.80;18.03;;;;;;;;;;2611354;39;20454;-77
2022/03/04 09:32:20;;;;;;;25.03;20.37;;;;;;;;;;2611262;54;20461;-77
2022/03/04 09:34:46;;;;;;;28.10;19.50;;;11.50;1.00;;;;;;2611255;54;20535;-78
2022/03/04 09:37:11;;;;;;;30.60;19.07;;;11.60;1.00;;;;;;2611206;54;20391;-77
2022/03/04 09:39:38;;;;;;;24.20;20.77;;;;;;;;;;2612753;54;20408;-77
2022/03/04 09:42:04;;;;;;;32.93;19.57;;;12.30;1.00;;;;;;2612132;47;20451;-77
2022/03/04 09:44:31;;;;;;;22.43;19.50;;;12.40;1.00;;;;;;2611260;54;20439;-77
2022/03/04 09:46:58;;;;;;;25.93;19.17;;;;;;;;;;2611081;47;20426;-77
2022/03/04 09:49:27;;;;;;;23.77;19.60;;;;;;;;;;2611949;54;20147;-78
2022/03/04 09:51:53;;;;;;;25.63;19.20;;;12.70;1.00;;;;;;2611547;54;22038;-77
2022/03/04 09:54:19;;;;;;;24.20;19.53;;;12.60;1.00;;;;;;2611278;54;20523;-79
2022/03/04 09:56:45;;;;;;;22.33;19.97;;;;;;;;;;2611613;54;20411;-77
2022/03/04 09:59:11;;;;;;;24.10;19.33;;;12.20;2.50;;;;;;2611499;47;20174;-78
2022/03/04 10:01:38;;;;;;;27.57;19.80;;;;;;;;;;2610633;54;20419;-77
2022/03/04 10:04:06;;;;;;;25.37;20.30;;;12.80;1.00;;;;;;2611658;54;20411;-77
2022/03/04 10:06:36;;;;;;;26.97;20.00;;;;;;;;;;2610992;47;20438;-77
2022/03/04 10:09:03;;;;;;;23.07;20.60;;;13.10;1.00;;;;;;2612215;47;20423;-77
2022/03/04 10:11:33;;;;;;;27.60;21.80;;;13.10;1.00;;;;;;2611150;54;20399;-80
2022/03/04 10:14:01;;;;;;;26.97;21.07;;;;;;;;;;2611577;39;20675;-78
2022/03/04 10:16:27;;;;;;;21.67;19.37;;;;;;;;;;2611483;47;21251;-77
2022/03/04 10:19:07;;;;;;;24.17;20.17;;;13.20;1.00;;;;;;2611508;47;20440;-77
2022/03/04 10:21:52;;;;;;;26.13;19.43;;;13.40;1.00;;;;;;2612011;54;20404;-76
2022/03/04 10:24:36;;;;;;;23.93;18.60;;;13.50;1.00;;;;;;2612114;47;20419;-77
2022/03/04 10:27:03;;;;;;;82.30;63.53;;;13.50;1.00;;;;;;2611274;47;20411;-77
2022/03/04 10:29:31;;;;;;;22.03;19.57;;;13.90;11.40;;;;;;2610338;39;20855;-77
2022/03/04 10:32:06;;;;;;;22.93;20.50;;;;;;;;;;2611487;54;20474;-77
2022/03/04 10:34:45;;;;;;;22.50;19.97;;;13.80;1.00;;;;;;2611137;54;20407;-78
2022/03/04 10:37:12;;;;;;;26.70;20.07;;;14.30;1.00;;;;;;2612206;47;20423;-78
2022/03/04 10:39:58;;;;;;;24.77;20.93;;;14.00;1.00;;;;;;2611357;47;20424;-78
2022/03/04 10:42:54;;;;;;;22.57;19.90;;;14.10;1.00;;;;;;2612330;54;20430;-77
2022/03/04 10:45:20;;;;;;;25.30;20.53;;;14.20;1.00;;;;;;2610919;47;20414;-78
2022/03/04 10:48:02;;;;;;;29.30;23.10;;;;;;;;;;2611374;54;20421;-77
2022/03/04 10:50:33;;;;;;;22.07;18.97;;;;;;;;;;2611883;54;20388;-77
2022/03/04 10:53:09;;;;;;;29.63;23.27;;;14.30;1.00;;;;;;2616532;54;20404;-76
2022/03/04 10:55:40;;;;;;;27.93;21.83;;;;;;;;;;2615644;46;20419;-78
2022/03/04 10:58:19;;;;;;;23.60;20.10;;;14.40;1.00;;;;;;2613042;39;20915;-79
2022/03/04 11:00:47;;;;;;;24.80;19.87;;;;;;;;;;2611390;47;20423;-76
2022/03/04 11:03:15;;;;;;;23.40;20.17;;;;;;;;;;2610548;47;20423;-77
2022/03/04 11:05:41;;;;;;;26.13;19.70;;;14.70;1.00;;;;;;2611056;54;20462;-77
2022/03/04 11:08:09;;;;;;;22.70;20.30;;;14.60;1.00;;;;;;2611199;47;20453;-78
2022/03/04 11:10:36;;;;;;;26.70;20.87;;;;;;;;;;2610609;47;20523;-78
2022/03/04 11:13:07;;;;;;;37.10;33.40;;;;;;;;;;2610587;46;20459;-78
2022/03/04 11:15:35;;;;;;;24.83;21.27;;;14.30;1.00;;;;;;2610958;47;20430;-77
2022/03/04 11:18:06;;;;;;;24.83;21.50;;;14.10;1.00;;;;;;2611228;51;20416;-77
2022/03/04 11:20:33;;;;;;;24.67;20.10;;;;;;;;;;2611518;47;21045;-78
2022/03/04 11:22:59;;;;;;;27.93;21.00;;;14.50;1.00;;;;;;2610449;54;20427;-77
2022/03/04 11:25:33;;;;;;;21.27;18.73;;;14.80;1.00;;;;;;2611341;54;20450;-77
2022/03/04 11:28:09;;;;;;;21.80;19.50;;;14.00;1.00;;;;;;2611660;54;20432;-78
2022/03/04 11:30:44;;;;;;;26.00;20.33;;;;;;;;;;2611788;54;20395;-77
2022/03/04 11:33:18;;;;;;;22.90;20.20;;;;;;;;;;2610555;47;20423;-79
2022/03/04 11:35:59;;;;;;;28.33;21.27;;;;;;;;;;2611802;47;20974;-77
2022/03/04 11:38:46;;;;;;;28.70;21.87;;;13.70;1.00;;;;;;2612671;54;21359;-79
2022/03/04 11:41:47;;;;;;;23.33;20.10;;;13.50;1.00;;;;;;2611896;47;20513;-77
2022/03/04 11:44:19;;;;;;;22.67;18.77;;;14.50;1.00;;;;;;2612167;54;20411;-77
2022/03/04 11:46:50;;;;;;;27.00;21.30;;;14.40;1.00;;;;;;2612352;54;20439;-76
2022/03/04 11:49:24;;;;;;;21.40;19.20;;;14.00;1.00;;;;;;2611679;47;20450;-78
2022/03/04 11:52:11;;;;;;;25.13;19.60;;;;;;;;;;2612775;39;21185;-77
2022/03/04 11:54:41;;;;;;;21.07;18.93;;;15.30;1.00;;;;;;2612138;47;20423;-76
2022/03/04 11:57:17;;;;;;;57.20;47.97;;;;;;;;;;2610269;54;20420;-78
2022/03/04 11:59:58;;;;;;;27.03;24.13;;;;;;;;;;2614802;39;20792;-79
2022/03/04 12:02:28;;;;;;;23.07;20.03;;;;;;;;;;2613941;54;20428;-77
2022/03/04 12:05:13;;;;;;;26.70;22.23;;;;;;;;;;2610482;39;20471;-78
2022/03/04 12:07:41;;;;;;;55.53;50.00;;;;;;;;;;2613154;47;20543;-77
2022/03/04 12:10:11;;;;;;;33.80;28.90;;;;;;;;;;2612263;39;20802;-78
2022/03/04 12:12:38;;;;;;;22.50;18.87;;;15.00;1.00;;;;;;2611497;47;20939;-77
2022/03/04 12:15:17;;;;;;;30.93;27.03;;;;;;;;;;2611006;47;20423;-79
2022/03/04 14:27:24;;;;;;;17.27;14.17;;;13.90;1.00;;;;;;2670441;36;20532;-77
2022/03/04 14:29:50;;;;;;;18.30;14.07;;;14.40;1.00;;;;;;2616830;51;20580;-78
2022/03/04 14:32:16;;;;;;;20.10;14.20;;;14.70;1.00;;;;;;2617777;47;20185;-77
2022/03/04 14:34:42;;;;;;;19.43;14.27;;;14.60;1.00;;;;;;2617127;46;20212;-77
2022/03/04 14:37:07;;;;;;;20.47;13.67;;;14.80;1.00;;;;;;2616167;46;20418;-77
2022/03/04 14:39:33;;;;;;;19.30;13.97;;;14.30;1.00;;;;;;2616611;38;21117;-77
2022/03/04 14:42:03;;;;;;;17.10;12.77;;;13.90;1.00;;;;;;2616897;46;20166;-76
2022/03/04 14:44:29;;;;;;;17.30;12.50;;;14.00;1.00;;;;;;2616702;46;20415;-76
2022/03/04 14:46:55;;;;;;;18.50;12.93;;;13.70;1.00;;;;;;2616222;47;20501;-77
2022/03/04 14:49:22;;;;;;;15.70;12.87;;;13.50;1.00;;;;;;2616131;51;20207;-77
2022/03/04 14:51:48;;;;;;;27.90;13.80;;;13.50;1.00;;;;;;2616095;46;20430;-77
2022/03/04 14:54:14;;;;;;;15.40;11.43;;;13.60;1.00;;;;;;2616165;54;20442;-80
2022/03/04 14:56:39;;;;;;;19.33;12.10;;;13.60;1.00;;;;;;2616014;47;20461;-79
2022/03/04 14:59:05;;;;;;;16.67;12.07;;;13.50;1.00;;;;;;2616029;46;20226;-76
2022/03/04 15:01:31;;;;;;;18.00;12.40;;;13.60;1.00;;;;;;2615970;46;20201;-77
2022/03/04 15:03:57;;;;;;;20.20;11.90;;;13.80;1.00;;;;;;2616914;54;20158;-77
2022/03/04 15:06:23;;;;;;;15.10;11.37;;;13.60;1.00;;;;;;2615749;54;20423;-77
2022/03/04 15:08:49;;;;;;;19.80;12.00;;;13.40;1.00;;;;;;2616112;47;20531;-78
2022/03/04 15:11:15;;;;;;;17.70;11.70;;;13.50;1.00;;;;;;2616952;46;20423;-79
2022/03/04 15:13:41;;;;;;;20.00;12.27;;;13.40;1.00;;;;;;2616438;46;20237;-78
2022/03/04 15:16:08;;;;;;;15.13;11.30;;;13.40;1.00;;;;;;2616897;38;20583;-79
2022/03/04 15:18:35;;;;;;;16.20;11.73;;;13.60;1.00;;;;;;2617232;38;20806;-78